sensor_id;sensor_type;location;lat;lon;timestamp;P1;P2;P0
57373;PMS7003;43964;53.890;25.340;2024-03-02T00:05:05;4;3.4;1.8
57373;PMS7003;43964;53.890;25.340;2024-03-02T00:10:05;4.8;4.2;2.8
57373;PMS7003;43964;53.890;25.340;2024-03-02T00:14:32;4.8;4.2;2.8
57373;PMS7003;43964;53.890;25.340;2024-03-02T00:19:44;4;3.2;2
57373;PMS7003;43964;53.890;25.340;2024-03-02T00:25:04;4.4;3.6;2.2
57373;PMS7003;43964;53.890;25.340;2024-03-02T00:29:56;4.4;3.6;2.2
57373;PMS7003;43964;53.890;25.340;2024-03-02T00:34:46;2.6;2;1.4
57373;PMS7003;43964;53.890;25.340;2024-03-02T00:39:38;3.2;2.8;1.8
57373;PMS7003;43964;53.890;25.340;2024-03-02T00:44:36;5;3.8;2.5
57373;PMS7003;43964;53.890;25.340;2024-03-02T00:50:05;3.2;2.8;2
57373;PMS7003;43964;53.890;25.340;2024-03-02T00:54:44;3.2;2.8;2
57373;PMS7003;43964;53.890;25.340;2024-03-02T01:00:05;5.2;4.2;2.6
57373;PMS7003;43964;53.890;25.340;2024-03-02T01:04:20;5.2;4.2;2.6
57373;PMS7003;43964;53.890;25.340;2024-03-02T01:09:52;3.8;3.2;1.6
57373;PMS7003;43964;53.890;25.340;2024-03-02T01:14:20;3.8;3;1.4
57373;PMS7003;43964;53.890;25.340;2024-03-02T01:19:26;3.8;3.4;2
57373;PMS7003;43964;53.890;25.340;2024-03-02T01:24:26;4.2;3.4;1.8
57373;PMS7003;43964;53.890;25.340;2024-03-02T01:29:32;4;2.8;1.4
57373;PMS7003;43964;53.890;25.340;2024-03-02T01:34:20;4.6;3.2;2.2
57373;PMS7003;43964;53.890;25.340;2024-03-02T01:39:32;3.6;3.2;1.4
57373;PMS7003;43964;53.890;25.340;2024-03-02T01:45:05;3.8;2.8;1.8
57373;PMS7003;43964;53.890;25.340;2024-03-02T01:49:20;3.8;2.8;1.8
57373;PMS7003;43964;53.890;25.340;2024-03-02T01:55:05;4.4;4.2;2
57373;PMS7003;43964;53.890;25.340;2024-03-02T01:59:52;4.4;4.2;2
57373;PMS7003;43964;53.890;25.340;2024-03-02T02:04:54;4;3.2;2
57373;PMS7003;43964;53.890;25.340;2024-03-02T02:09:36;3.8;3.4;2.2
57373;PMS7003;43964;53.890;25.340;2024-03-02T02:15:00;4.4;3.6;2
57373;PMS7003;43964;53.890;25.340;2024-03-02T02:19:56;5.4;4.2;2.4
57373;PMS7003;43964;53.890;25.340;2024-03-02T02:24:39;7;5;2.6
57373;PMS7003;43964;53.890;25.340;2024-03-02T02:29:20;3.8;3.8;2
57373;PMS7003;43964;53.890;25.340;2024-03-02T02:35:05;4.2;4;2.6
57373;PMS7003;43964;53.890;25.340;2024-03-02T02:39:28;4.2;4;2.6
57373;PMS7003;43964;53.890;25.340;2024-03-02T02:44:52;4.6;4.2;2.6
57373;PMS7003;43964;53.890;25.340;2024-03-02T02:49:20;6.5;4.3;2.5
57373;PMS7003;43964;53.890;25.340;2024-03-02T02:54:26;5.4;4;2.2
57373;PMS7003;43964;53.890;25.340;2024-03-02T02:59:20;4.6;3.8;2.4
57373;PMS7003;43964;53.890;25.340;2024-03-02T03:04:20;8;6;3.2
57373;PMS7003;43964;53.890;25.340;2024-03-02T03:09:26;6;3.8;3
57373;PMS7003;43964;53.890;25.340;2024-03-02T03:14:29;6.2;4.8;3
57373;PMS7003;43964;53.890;25.340;2024-03-02T03:20:05;5.2;4.4;2.4
57373;PMS7003;43964;53.890;25.340;2024-03-02T03:24:48;5.2;4.4;2.4
57373;PMS7003;43964;53.890;25.340;2024-03-02T03:30:05;5.4;4.2;2.4
57373;PMS7003;43964;53.890;25.340;2024-03-02T03:34:52;5.4;4.2;2.4
57373;PMS7003;43964;53.890;25.340;2024-03-02T03:39:56;7;5.6;3.4
57373;PMS7003;43964;53.890;25.340;2024-03-02T03:44:30;6;5.4;2.8
57373;PMS7003;43964;53.890;25.340;2024-03-02T03:49:32;5.8;5;3.3
57373;PMS7003;43964;53.890;25.340;2024-03-02T03:55:07;6.2;4.8;2.8
57373;PMS7003;43964;53.890;25.340;2024-03-02T04:00:05;5.2;4.4;3
57373;PMS7003;43964;53.890;25.340;2024-03-02T04:04:44;5.2;4.4;3
57373;PMS7003;43964;53.890;25.340;2024-03-02T04:10:05;7.6;5.6;2.8
57373;PMS7003;43964;53.890;25.340;2024-03-02T04:14:57;7.6;5.6;2.8
57373;PMS7003;43964;53.890;25.340;2024-03-02T04:19:52;5.6;5;2.8
57373;PMS7003;43964;53.890;25.340;2024-03-02T04:25:05;5.8;5;3.6
57373;PMS7003;43964;53.890;25.340;2024-03-02T04:29:26;5.8;5;3.6
57373;PMS7003;43964;53.890;25.340;2024-03-02T04:34:56;5.4;5;3.4
57373;PMS7003;43964;53.890;25.340;2024-03-02T04:39:38;6;4.7;3
57373;PMS7003;43964;53.890;25.340;2024-03-02T04:44:20;4.8;4;2.8
57373;PMS7003;43964;53.890;25.340;2024-03-02T04:49:44;4.4;3.4;2
57373;PMS7003;43964;53.890;25.340;2024-03-02T04:54:46;5;4;2.5
57373;PMS7003;43964;53.890;25.340;2024-03-02T04:59:20;5.3;4.3;2.8
57373;PMS7003;43964;53.890;25.340;2024-03-02T05:09:52;3;3;1
57373;PMS7003;43964;53.890;25.340;2024-03-02T05:14:20;5;4.3;2.7
57373;PMS7003;43964;53.890;25.340;2024-03-02T05:19:20;4.6;3.8;2.6
57373;PMS7003;43964;53.890;25.340;2024-03-02T05:24:45;4.8;4.3;2.8
57373;PMS7003;43964;53.890;25.340;2024-03-02T05:29:56;3.8;3.5;1.8
57373;PMS7003;43964;53.890;25.340;2024-03-02T05:34:37;5;3.7;2.3
57373;PMS7003;43964;53.890;25.340;2024-03-02T05:39:57;5.3;4.8;2.5
57373;PMS7003;43964;53.890;25.340;2024-03-02T05:44:53;5.2;4.8;3.2
57373;PMS7003;43964;53.890;25.340;2024-03-02T05:59:57;5.3;4.3;2.7
57373;PMS7003;43964;53.890;25.340;2024-03-02T06:04:47;6;5;2.5
57373;PMS7003;43964;53.890;25.340;2024-03-02T06:09:59;7.8;5.4;3.8
57373;PMS7003;43964;53.890;25.340;2024-03-02T06:14:59;6;5.4;3.8
57373;PMS7003;43964;53.890;25.340;2024-03-02T06:19:45;6;5.2;3.4
57373;PMS7003;43964;53.890;25.340;2024-03-02T06:24:21;5;5;3
57373;PMS7003;43964;53.890;25.340;2024-03-02T06:29:29;6.6;6;3.4
57373;PMS7003;43964;53.890;25.340;2024-03-02T06:34:49;8.6;6;3.2
57373;PMS7003;43964;53.890;25.340;2024-03-02T06:40:07;7;5.6;3.6
57373;PMS7003;43964;53.890;25.340;2024-03-02T06:45:07;5.2;4.8;3
57373;PMS7003;43964;53.890;25.340;2024-03-02T06:49:29;5.2;4.8;3
57373;PMS7003;43964;53.890;25.340;2024-03-02T06:55:05;6.8;5;2.8
57373;PMS7003;43964;53.890;25.340;2024-03-02T06:59:39;6.8;5;2.8
57373;PMS7003;43964;53.890;25.340;2024-03-02T07:04:59;5.4;5.2;3
57373;PMS7003;43964;53.890;25.340;2024-03-02T07:09:21;7;6;3.5
57373;PMS7003;43964;53.890;25.340;2024-03-02T07:14:59;6.8;5.8;3.4
57373;PMS7003;43964;53.890;25.340;2024-03-02T07:19:55;6.6;5.4;3.6
57373;PMS7003;43964;53.890;25.340;2024-03-02T07:25:07;6.6;5.8;4.2
57373;PMS7003;43964;53.890;25.340;2024-03-02T07:29:47;6.6;5.8;4.2
57373;PMS7003;43964;53.890;25.340;2024-03-02T07:34:59;6.5;5.5;3.3
57373;PMS7003;43964;53.890;25.340;2024-03-02T07:39:47;6.7;6;3
57373;PMS7003;43964;53.890;25.340;2024-03-02T07:49:21;8;5;3.5
57373;PMS7003;43964;53.890;25.340;2024-03-02T07:54:29;5.3;4.3;3.3
57373;PMS7003;43964;53.890;25.340;2024-03-02T07:59:21;5.2;4.6;2.6
57373;PMS7003;43964;53.890;25.340;2024-03-02T08:04:29;6.8;5.3;3.3
57373;PMS7003;43964;53.890;25.340;2024-03-02T08:09:55;7.3;5;2
57373;PMS7003;43964;53.890;25.340;2024-03-02T08:15:07;5.3;5;2.7
57373;PMS7003;43964;53.890;25.340;2024-03-02T08:20:07;7.7;5.7;3.7
57373;PMS7003;43964;53.890;25.340;2024-03-02T08:24:35;7.7;5.7;3.7
57373;PMS7003;43964;53.890;25.340;2024-03-02T08:29:29;5;4.4;2
57373;PMS7003;43964;53.890;25.340;2024-03-02T08:35:07;5;4.6;2.6
57373;PMS7003;43964;53.890;25.340;2024-03-02T08:39:57;5;4.6;2.6
57373;PMS7003;43964;53.890;25.340;2024-03-02T08:44:31;4.8;3.6;1.8
57373;PMS7003;43964;53.890;25.340;2024-03-02T08:49:47;5.8;3.4;1.6
57373;PMS7003;43964;53.890;25.340;2024-03-02T08:59:47;4.2;4;1.8
57373;PMS7003;43964;53.890;25.340;2024-03-02T09:04:22;5.6;5.4;3.2
57373;PMS7003;43964;53.890;25.340;2024-03-02T09:09:59;6.8;5.4;2.6
57373;PMS7003;43964;53.890;25.340;2024-03-02T09:15:07;5.8;5.3;3
57373;PMS7003;43964;53.890;25.340;2024-03-02T09:19:55;5.8;5.3;3
57373;PMS7003;43964;53.890;25.340;2024-03-02T09:24:51;6.6;5.6;3
57373;PMS7003;43964;53.890;25.340;2024-03-02T09:29:21;6.4;5.6;3.4
57373;PMS7003;43964;53.890;25.340;2024-03-02T09:34:27;7.8;5.8;3
57373;PMS7003;43964;53.890;25.340;2024-03-02T09:39:35;4.5;4;2.3
57373;PMS7003;43964;53.890;25.340;2024-03-02T09:44:21;8.3;6;4
57373;PMS7003;43964;53.890;25.340;2024-03-02T09:49:47;5.2;4.6;2.8
57373;PMS7003;43964;53.890;25.340;2024-03-02T09:55:07;7.4;5.6;2.8
57373;PMS7003;43964;53.890;25.340;2024-03-02T09:59:41;7.4;5.6;2.8
57373;PMS7003;43964;53.890;25.340;2024-03-02T10:05:07;5.2;4.4;2.8
57373;PMS7003;43964;53.890;25.340;2024-03-02T10:09:49;5.2;4.4;2.8
57373;PMS7003;43964;53.890;25.340;2024-03-02T10:15:03;4.8;4.6;2.8
57373;PMS7003;43964;53.890;25.340;2024-03-02T10:19:37;6;4.5;2.8
57373;PMS7003;43964;53.890;25.340;2024-03-02T10:24:47;5.5;5;2.5
57373;PMS7003;43964;53.890;25.340;2024-03-02T10:30:07;6.3;5.3;2.8
57373;PMS7003;43964;53.890;25.340;2024-03-02T10:35:07;4.6;3.8;2.6
57373;PMS7003;43964;53.890;25.340;2024-03-02T10:39:21;4.6;3.8;2.6
57373;PMS7003;43964;53.890;25.340;2024-03-02T10:44:49;5;4.3;1.7
57373;PMS7003;43964;53.890;25.340;2024-03-02T10:55:07;4.3;4;2
57373;PMS7003;43964;53.890;25.340;2024-03-02T11:00:07;5.5;4.5;2.3
57373;PMS7003;43964;53.890;25.340;2024-03-02T11:04:21;5.5;4.5;2.3
57373;PMS7003;43964;53.890;25.340;2024-03-02T11:09:22;5.4;4.8;2.8
57373;PMS7003;43964;53.890;25.340;2024-03-02T11:14:21;5.6;4.6;2.2
57373;PMS7003;43964;53.890;25.340;2024-03-02T11:19:21;6.2;4.8;2.6
57373;PMS7003;43964;53.890;25.340;2024-03-02T11:24:35;5.8;3.5;1.8
57373;PMS7003;43964;53.890;25.340;2024-03-02T11:30:07;5.4;4.6;3.4
57373;PMS7003;43964;53.890;25.340;2024-03-02T11:34:28;5.4;4.6;3.4
57373;PMS7003;43964;53.890;25.340;2024-03-02T11:40:05;2.5;2.5;1.5
57373;PMS7003;43964;53.890;25.340;2024-03-02T11:44:42;2.5;2.5;1.5
57373;PMS7003;43964;53.890;25.340;2024-03-02T11:49:57;5.3;4;2.5
57373;PMS7003;43964;53.890;25.340;2024-03-02T11:54:37;3.7;2.7;1.3
57373;PMS7003;43964;53.890;25.340;2024-03-02T11:59:46;4.5;4;2.5
57373;PMS7003;43964;53.890;25.340;2024-03-02T12:05:05;4;3.3;2
57373;PMS7003;43964;53.890;25.340;2024-03-02T12:10:05;3.6;2.8;1.2
57373;PMS7003;43964;53.890;25.340;2024-03-02T12:14:49;3.6;2.8;1.2
57373;PMS7003;43964;53.890;25.340;2024-03-02T12:20:05;3.6;2.6;1.4
57373;PMS7003;43964;53.890;25.340;2024-03-02T12:25:05;3.3;2.5;1.5
57373;PMS7003;43964;53.890;25.340;2024-03-02T12:29:53;3.3;2.5;1.5
57373;PMS7003;43964;53.890;25.340;2024-03-02T12:35:05;2.6;2.4;0.8
57373;PMS7003;43964;53.890;25.340;2024-03-02T12:39:21;2.6;2.4;0.8
57373;PMS7003;43964;53.890;25.340;2024-03-02T12:44:31;3;2;0.8
57373;PMS7003;43964;53.890;25.340;2024-03-02T12:49:33;3.3;2.3;0.8
57373;PMS7003;43964;53.890;25.340;2024-03-02T12:55:05;2.8;2.2;1.4
57373;PMS7003;43964;53.890;25.340;2024-03-02T12:59:58;2.8;2.2;1.4
57373;PMS7003;43964;53.890;25.340;2024-03-02T13:04:33;3.2;2.2;1
57373;PMS7003;43964;53.890;25.340;2024-03-02T13:09:35;2.3;2;0.8
57373;PMS7003;43964;53.890;25.340;2024-03-02T13:15:08;3.4;2.8;0.6
57373;PMS7003;43964;53.890;25.340;2024-03-02T13:19:53;3.4;2.8;0.6
57373;PMS7003;43964;53.890;25.340;2024-03-02T13:24:21;3.4;3;1.4
57373;PMS7003;43964;53.890;25.340;2024-03-02T13:29:37;4.4;3;1.2
57373;PMS7003;43964;53.890;25.340;2024-03-02T13:34:47;4.4;2.6;1
57373;PMS7003;43964;53.890;25.340;2024-03-02T13:39:57;5.3;3.5;2
57373;PMS7003;43964;53.890;25.340;2024-03-02T13:44:37;5;3.8;1.8
57373;PMS7003;43964;53.890;25.340;2024-03-02T13:50:03;3.2;2.2;1.2
57373;PMS7003;43964;53.890;25.340;2024-03-02T13:54:41;3.2;2.2;1
57373;PMS7003;43964;53.890;25.340;2024-03-02T13:59:57;3.7;3.3;2
57373;PMS7003;43964;53.890;25.340;2024-03-02T14:04:39;4.6;3.6;1.8
57373;PMS7003;43964;53.890;25.340;2024-03-02T14:09:57;3.8;2.5;1
57373;PMS7003;43964;53.890;25.340;2024-03-02T14:14:45;4.8;3.8;2
57373;PMS7003;43964;53.890;25.340;2024-03-02T14:19:47;3.6;3.2;2.2
57373;PMS7003;43964;53.890;25.340;2024-03-02T14:24:45;4.5;4;2.5
57373;PMS7003;43964;53.890;25.340;2024-03-02T14:29:37;4.2;3;1.2
57373;PMS7003;43964;53.890;25.340;2024-03-02T14:34:27;3.6;2.8;1.2
57373;PMS7003;43964;53.890;25.340;2024-03-02T14:39:27;5.2;4;1.8
57373;PMS7003;43964;53.890;25.340;2024-03-02T14:44:53;5;4;1.8
57373;PMS7003;43964;53.890;25.340;2024-03-02T14:50:05;4;3.3;2
57373;PMS7003;43964;53.890;25.340;2024-03-02T14:55:05;3.2;2.4;1.2
57373;PMS7003;43964;53.890;25.340;2024-03-02T14:59:27;3.2;2.4;1.2
57373;PMS7003;43964;53.890;25.340;2024-03-02T15:04:45;3.6;2.6;1
57373;PMS7003;43964;53.890;25.340;2024-03-02T15:10:05;4;3;1.7
57373;PMS7003;43964;53.890;25.340;2024-03-02T15:15:05;2.8;2.8;1
57373;PMS7003;43964;53.890;25.340;2024-03-02T15:19:37;2.8;2.8;1
57373;PMS7003;43964;53.890;25.340;2024-03-02T15:24:45;2.6;2.6;1.4
57373;PMS7003;43964;53.890;25.340;2024-03-02T15:29:37;3.8;3.4;1.6
57373;PMS7003;43964;53.890;25.340;2024-03-02T15:35:05;3.2;1.6;0.4
57373;PMS7003;43964;53.890;25.340;2024-03-02T15:39:53;3.2;1.6;0.4
57373;PMS7003;43964;53.890;25.340;2024-03-02T15:45:05;3.3;1.3;0.7
57373;PMS7003;43964;53.890;25.340;2024-03-02T15:49:39;3.3;1.3;0.7
57373;PMS7003;43964;53.890;25.340;2024-03-02T15:54:21;3.6;2.4;0.6
57373;PMS7003;43964;53.890;25.340;2024-03-02T15:59:27;2.8;2;0.6
57373;PMS7003;43964;53.890;25.340;2024-03-02T16:04:27;2.5;2;1
57373;PMS7003;43964;53.890;25.340;2024-03-02T16:14:27;2;2;1
57373;PMS7003;43964;53.890;25.340;2024-03-02T16:19:29;4;2.3;0.3
57373;PMS7003;43964;53.890;25.340;2024-03-02T16:25:05;2;1.7;0.3
57373;PMS7003;43964;53.890;25.340;2024-03-02T16:30:05;2.7;1.7;0.3
57373;PMS7003;43964;53.890;25.340;2024-03-02T16:34:33;2.7;1.7;0.3
57373;PMS7003;43964;53.890;25.340;2024-03-02T16:39:23;2.3;1.3;0.7
57373;PMS7003;43964;53.890;25.340;2024-03-02T16:45:05;1.8;1.3;0.8
57373;PMS7003;43964;53.890;25.340;2024-03-02T16:49:57;1.8;1.3;0.8
57373;PMS7003;43964;53.890;25.340;2024-03-02T16:54:37;1.7;1.3;0
57373;PMS7003;43964;53.890;25.340;2024-03-02T17:00:05;1.2;0.4;0
57373;PMS7003;43964;53.890;25.340;2024-03-02T17:04:37;1.2;0.4;0
57373;PMS7003;43964;53.890;25.340;2024-03-02T17:10:05;0.2;0;0
57373;PMS7003;43964;53.890;25.340;2024-03-02T17:14:39;0.2;0;0
57373;PMS7003;43964;53.890;25.340;2024-03-02T17:20:07;2;0.6;0.2
57373;PMS7003;43964;53.890;25.340;2024-03-02T17:24:45;2;0.6;0.2
57373;PMS7003;43964;53.890;25.340;2024-03-02T17:29:55;0.6;0;0
57373;PMS7003;43964;53.890;25.340;2024-03-02T17:34:21;0.4;0.4;0
57373;PMS7003;43964;53.890;25.340;2024-03-02T17:39:55;0.2;0.2;0
57373;PMS7003;43964;53.890;25.340;2024-03-02T17:44:27;1.7;1;0.3
57373;PMS7003;43964;53.890;25.340;2024-03-02T17:50:07;1.5;0.5;0.3
57373;PMS7003;43964;53.890;25.340;2024-03-02T17:54:21;1.5;0.5;0.3
57373;PMS7003;43964;53.890;25.340;2024-03-02T17:59:35;1.5;1;0.8
57373;PMS7003;43964;53.890;25.340;2024-03-02T18:05:07;0.8;0.8;0
57373;PMS7003;43964;53.890;25.340;2024-03-02T18:09:21;0.8;0.8;0
57373;PMS7003;43964;53.890;25.340;2024-03-02T18:15:07;1.2;1.2;0.8
57373;PMS7003;43964;53.890;25.340;2024-03-02T18:19:55;1.2;1.2;0.8
57373;PMS7003;43964;53.890;25.340;2024-03-02T18:24:57;1.6;0.8;0.4
57373;PMS7003;43964;53.890;25.340;2024-03-02T18:29:37;1.3;0.5;0
57373;PMS7003;43964;53.890;25.340;2024-03-02T18:34:39;1;0.8;0
57373;PMS7003;43964;53.890;25.340;2024-03-02T18:40:08;0.7;0.7;0.7
57373;PMS7003;43964;53.890;25.340;2024-03-02T18:45:07;1.2;0.6;0
57373;PMS7003;43964;53.890;25.340;2024-03-02T18:49:41;1.2;0.6;0
57373;PMS7003;43964;53.890;25.340;2024-03-02T18:55:07;1.4;1.4;0.2
57373;PMS7003;43964;53.890;25.340;2024-03-02T18:59:48;1.4;1.4;0.2
57373;PMS7003;43964;53.890;25.340;2024-03-02T19:04:53;1.8;1.2;0.2
57373;PMS7003;43964;53.890;25.340;2024-03-02T19:10:07;1.2;0.8;0
57373;PMS7003;43964;53.890;25.340;2024-03-02T19:14:27;1.2;0.8;0
57373;PMS7003;43964;53.890;25.340;2024-03-02T19:19:21;1.6;0.8;0.2
57373;PMS7003;43964;53.890;25.340;2024-03-02T19:24:27;1.2;0.6;0.2
57373;PMS7003;43964;53.890;25.340;2024-03-02T19:29:21;3;1.8;0.6
57373;PMS7003;43964;53.890;25.340;2024-03-02T19:34:28;2.2;2;0.6
57373;PMS7003;43964;53.890;25.340;2024-03-02T19:39:37;2;1.6;0.4
57373;PMS7003;43964;53.890;25.340;2024-03-02T19:44:22;1.5;1.3;0.3
57373;PMS7003;43964;53.890;25.340;2024-03-02T19:50:09;1.6;1.2;0.4
57373;PMS7003;43964;53.890;25.340;2024-03-02T19:54:55;1.6;1.2;0.4
57373;PMS7003;43964;53.890;25.340;2024-03-02T19:59:21;1.4;0.8;0
57373;PMS7003;43964;53.890;25.340;2024-03-02T20:04:21;1.6;1.4;0.4
57373;PMS7003;43964;53.890;25.340;2024-03-02T20:09:49;1.8;0.6;0
57373;PMS7003;43964;53.890;25.340;2024-03-02T20:14:59;2.6;1.6;0.6
57373;PMS7003;43964;53.890;25.340;2024-03-02T20:19:21;1.4;1;0.8
57373;PMS7003;43964;53.890;25.340;2024-03-02T20:24:59;2.6;2;1
57373;PMS7003;43964;53.890;25.340;2024-03-02T20:29:55;0.8;0.8;0.2
57373;PMS7003;43964;53.890;25.340;2024-03-02T20:35:09;2.2;2.2;0.8
57373;PMS7003;43964;53.890;25.340;2024-03-02T20:39:42;2.2;2.2;0.8
57373;PMS7003;43964;53.890;25.340;2024-03-02T20:44:41;3.8;2.8;1.6
57373;PMS7003;43964;53.890;25.340;2024-03-02T20:49:27;3.3;2.8;1.3
57373;PMS7003;43964;53.890;25.340;2024-03-02T20:54:21;2.8;2.4;1.4
57373;PMS7003;43964;53.890;25.340;2024-03-02T20:59:21;2.4;2;0.8
57373;PMS7003;43964;53.890;25.340;2024-03-02T21:04:21;1.8;1.4;1
57373;PMS7003;43964;53.890;25.340;2024-03-02T21:09:39;4;3;1.6
57373;PMS7003;43964;53.890;25.340;2024-03-02T21:14:21;3;2.8;1.2
57373;PMS7003;43964;53.890;25.340;2024-03-02T21:19:55;2.6;2.6;2
57373;PMS7003;43964;53.890;25.340;2024-03-02T21:25:09;2.2;2.2;0.8
57373;PMS7003;43964;53.890;25.340;2024-03-02T21:30:09;2;1.4;0.6
57373;PMS7003;43964;53.890;25.340;2024-03-02T21:34:55;2;1.4;0.6
57373;PMS7003;43964;53.890;25.340;2024-03-02T21:39:49;2.8;2.2;1.4
57373;PMS7003;43964;53.890;25.340;2024-03-02T21:44:49;3.4;2.8;1.4
57373;PMS7003;43964;53.890;25.340;2024-03-02T21:49:59;3.3;2.8;1
57373;PMS7003;43964;53.890;25.340;2024-03-02T21:54:39;3.4;2;1
57373;PMS7003;43964;53.890;25.340;2024-03-02T21:59:49;2.4;2.2;1.2
57373;PMS7003;43964;53.890;25.340;2024-03-02T22:04:41;3;2;1
57373;PMS7003;43964;53.890;25.340;2024-03-02T22:10:09;1.8;1.6;1
57373;PMS7003;43964;53.890;25.340;2024-03-02T22:14:21;1.8;1.6;1
57373;PMS7003;43964;53.890;25.340;2024-03-02T22:19:51;2.8;1.8;1
57373;PMS7003;43964;53.890;25.340;2024-03-02T22:24:21;3.2;2.6;1.2
57373;PMS7003;43964;53.890;25.340;2024-03-02T22:29:55;3.6;2.8;1.4
57373;PMS7003;43964;53.890;25.340;2024-03-02T22:34:27;2.6;2.2;1.2
57373;PMS7003;43964;53.890;25.340;2024-03-02T22:39:21;2;2;1
57373;PMS7003;43964;53.890;25.340;2024-03-02T22:44:27;1.6;1.4;0.8
57373;PMS7003;43964;53.890;25.340;2024-03-02T22:49:27;2.3;1.8;1
57373;PMS7003;43964;53.890;25.340;2024-03-02T22:54:39;2.8;2;1
57373;PMS7003;43964;53.890;25.340;2024-03-02T22:59:35;2.4;1.4;1
57373;PMS7003;43964;53.890;25.340;2024-03-02T23:05:07;2.2;1.8;0.8
57373;PMS7003;43964;53.890;25.340;2024-03-02T23:09:27;2.2;1.8;0.8
57373;PMS7003;43964;53.890;25.340;2024-03-02T23:15:07;2;1;0.4
57373;PMS7003;43964;53.890;25.340;2024-03-02T23:19:53;2;1;0.4
57373;PMS7003;43964;53.890;25.340;2024-03-02T23:24:59;1.4;1.4;0.8
57373;PMS7003;43964;53.890;25.340;2024-03-02T23:29:41;1.8;1;0.4
57373;PMS7003;43964;53.890;25.340;2024-03-02T23:34:47;0.8;0.4;0.2
57373;PMS7003;43964;53.890;25.340;2024-03-02T23:40:08;1.2;1;0.4
57373;PMS7003;43964;53.890;25.340;2024-03-02T23:45:08;1.8;0.8;0.4
57373;PMS7003;43964;53.890;25.340;2024-03-02T23:49:45;1.8;0.8;0.4
57373;PMS7003;43964;53.890;25.340;2024-03-02T23:55:07;2.4;1.2;0.6
